Time;durP1;ratioP1;P1;durP2;ratioP2;P2;SDS_P1;SDS_P2;PMS_P1;PMS_P2;Temp;Humidity;BMP_temperature;BMP_pressure;BME280_temperature;BME280_humidity;BME280_pressure;Samples;Min_cycle;Max_cycle;Signal;HPM_P1;HPM_P2
2021/08/24 00:02:01;;;;;;;3.88;2.10;;;;;;;;;;5096481;28;20595;-42
2021/08/24 00:04:27;;;;;;;2.50;2.30;;;;;;;;;;5089414;28;20243;-42
2021/08/24 00:06:53;;;;;;;2.50;2.30;;;;;;;;;;5096011;28;20186;-42
2021/08/24 00:09:19;;;;;;;4.50;2.47;;;;;;;;;;5082185;28;20240;-43
2021/08/24 00:11:45;;;;;;;4.05;2.35;;;;;;;;;;5092689;28;20619;-43
2021/08/24 00:14:12;;;;;;;2.83;2.20;;;;;;;;;;5097671;28;20190;-43
2021/08/24 00:16:41;;;;;;;3.10;2.30;;;;;;;;;;5097742;28;20198;-43
2021/08/24 00:19:11;;;;;;;2.20;2.00;;;;;;;;;;5096082;28;20181;-43
2021/08/24 00:21:38;;;;;;;4.15;2.40;;;;;;;;;;5097568;28;20549;-42
2021/08/24 00:24:05;;;;;;;3.78;2.20;;;;;;;;;;5097524;28;20284;-42
2021/08/24 00:26:31;;;;;;;3.35;2.15;;;;;;;;;;5097449;28;20212;-42
2021/08/24 00:28:57;;;;;;;6.63;2.38;;;;;;;;;;5096137;28;20277;-42
2021/08/24 00:31:23;;;;;;;4.35;2.45;;;;;;;;;;5097044;28;20252;-42
2021/08/24 00:33:49;;;;;;;4.75;2.40;;;;;;;;;;5096485;28;20213;-43
2021/08/24 00:36:16;;;;;;;4.10;2.13;;;;;;;;;;5077191;28;20184;-43
2021/08/24 00:38:42;;;;;;;4.55;2.30;;;;;;;;;;5088235;28;20437;-43
2021/08/24 00:41:09;;;;;;;3.58;2.55;;;;;;;;;;5078295;28;20170;-43
2021/08/24 00:43:36;;;;;;;2.92;2.58;;;;;;;;;;5097158;28;20180;-43
2021/08/24 00:46:22;;;;;;;4.15;2.05;;;;;;;;;;5096353;28;20442;-43
2021/08/24 00:48:48;;;;;;;2.58;2.28;;;;;;;;;;5041191;28;20752;-43
2021/08/24 00:51:16;;;;;;;2.65;2.13;;;;;;;;;;5078795;28;20633;-43
2021/08/24 00:53:42;;;;;;;4.07;2.38;;;;;;;;;;5083970;28;20210;-43
2021/08/24 00:56:08;;;;;;;2.42;2.20;;;;;;;;;;5084005;28;20178;-43
2021/08/24 00:58:34;;;;;;;5.07;2.47;;;;;;;;;;5087098;28;20267;-42
2021/08/24 01:01:00;;;;;;;3.13;2.42;;;;;;;;;;5080804;28;20217;-42
2021/08/24 01:03:31;;;;;;;3.97;2.35;;;;;;;;;;5095810;28;20224;-42
2021/08/24 01:06:01;;;;;;;2.67;2.05;;;;;;;;;;5096995;28;20170;-42
2021/08/24 01:08:31;;;;;;;4.38;1.98;;;;;;;;;;5082772;28;20452;-42
2021/08/24 01:11:05;;;;;;;3.22;2.10;;;;;;;;;;5094770;28;20209;-42
2021/08/24 01:13:30;;;;;;;3.92;2.47;;;;;;;;;;5096649;28;20565;-42
2021/08/24 01:16:04;;;;;;;4.00;2.30;;;;;;;;;;5096117;28;20181;-43
2021/08/24 01:18:33;;;;;;;2.40;2.00;;;;;;;;;;5095289;28;20217;-43
2021/08/24 01:21:16;;;;;;;3.47;2.20;;;;;;;;;;5095932;28;20260;-42
2021/08/24 01:24:14;;;;;;;2.90;1.80;;;;;;;;;;5098299;28;20180;-42
2021/08/24 01:26:45;;;;;;;3.80;2.25;;;;;;;;;;5039771;28;20232;-42
2021/08/24 01:29:47;;;;;;;5.63;2.50;;;;;;;;;;5095811;28;20249;-42
2021/08/24 01:32:32;;;;;;;2.88;2.30;;;;;;;;;;4987419;28;20272;-42
2021/08/24 01:35:04;;;;;;;2.00;1.80;;;;;;;;;;5076091;28;20209;-43
2021/08/24 01:37:44;;;;;;;2.78;1.95;;;;;;;;;;5085816;28;20676;-42
2021/08/24 01:40:15;;;;;;;2.83;2.10;;;;;;;;;;5083480;28;20261;-43
2021/08/24 01:42:42;;;;;;;2.00;1.80;;;;;;;;;;5077918;28;20225;-43
2021/08/24 01:45:20;;;;;;;3.42;2.17;;;;;;;;;;5094516;28;20180;-43
2021/08/24 01:48:03;;;;;;;3.35;2.38;;;;;;;;;;5091565;28;20178;-43
2021/08/24 01:50:38;;;;;;;3.03;2.13;;;;;;;;;;5095960;28;20170;-42
2021/08/24 01:53:22;;;;;;;2.88;2.30;;;;;;;;;;5093076;28;20189;-42
2021/08/24 01:55:51;;;;;;;2.60;1.90;;;;;;;;;;5094778;28;20173;-42
2021/08/24 01:58:22;;;;;;;2.75;2.15;;;;;;;;;;5095266;28;20169;-42
2021/08/24 02:00:52;;;;;;;2.53;1.90;;;;;;;;;;5095104;28;20476;-42
2021/08/24 02:03:22;;;;;;;2.65;2.25;;;;;;;;;;5089889;28;20242;-42
2021/08/24 02:05:50;;;;;;;3.08;2.28;;;;;;;;;;5089056;28;20223;-43
2021/08/24 02:08:19;;;;;;;2.35;1.88;;;;;;;;;;5078710;28;20197;-43
2021/08/24 02:10:46;;;;;;;2.70;2.08;;;;;;;;;;5092451;28;20182;-42
2021/08/24 02:13:13;;;;;;;3.97;2.05;;;;;;;;;;5094803;28;20197;-42
2021/08/24 02:15:45;;;;;;;2.30;1.90;;;;;;;;;;5079220;28;20570;-42
2021/08/24 02:18:14;;;;;;;2.58;1.98;;;;;;;;;;5093821;28;20181;-42
2021/08/24 02:20:42;;;;;;;2.40;2.00;;;;;;;;;;5088410;28;20538;-42
2021/08/24 02:23:13;;;;;;;2.72;1.98;;;;;;;;;;5088710;28;20546;-43
2021/08/24 02:25:41;;;;;;;2.83;1.92;;;;;;;;;;5114272;28;20242;-43
2021/08/24 02:28:10;;;;;;;2.42;2.00;;;;;;;;;;5094230;28;20526;-43
2021/08/24 02:30:39;;;;;;;3.95;2.05;;;;;;;;;;5094966;28;20173;-43
2021/08/24 02:33:06;;;;;;;3.42;2.10;;;;;;;;;;5092488;28;20229;-42
2021/08/24 02:35:44;;;;;;;2.10;1.73;;;;;;;;;;5091633;28;20170;-42
2021/08/24 02:38:14;;;;;;;2.97;2.33;;;;;;;;;;5088860;28;20445;-42
2021/08/24 02:40:46;;;;;;;2.33;1.77;;;;;;;;;;5078335;28;20202;-42
2021/08/24 02:43:22;;;;;;;3.33;1.80;;;;;;;;;;5088408;28;20194;-42
2021/08/24 02:45:53;;;;;;;2.63;1.85;;;;;;;;;;5089020;28;20178;-42
2021/08/24 02:48:20;;;;;;;2.40;2.00;;;;;;;;;;5093984;28;20186;-42
2021/08/24 02:50:46;;;;;;;3.38;2.40;;;;;;;;;;5094668;28;20238;-42
2021/08/24 02:53:14;;;;;;;3.28;2.10;;;;;;;;;;5085305;28;20690;-42
2021/08/24 02:55:40;;;;;;;2.35;1.67;;;;;;;;;;5079870;28;20186;-42
2021/08/24 02:58:06;;;;;;;4.88;2.05;;;;;;;;;;5076896;28;20170;-42
2021/08/24 03:00:32;;;;;;;3.55;2.22;;;;;;;;;;5085034;28;20189;-42
2021/08/24 03:02:58;;;;;;;2.50;1.80;;;;;;;;;;5084672;28;20276;-42
2021/08/24 03:05:24;;;;;;;2.33;1.65;;;;;;;;;;5093601;28;20181;-42
2021/08/24 03:07:50;;;;;;;2.33;1.90;;;;;;;;;;5088725;28;20180;-42
2021/08/24 03:10:18;;;;;;;3.30;2.10;;;;;;;;;;5063885;28;20174;-42
2021/08/24 03:13:02;;;;;;;4.03;1.88;;;;;;;;;;5082920;28;20194;-42
2021/08/24 03:15:37;;;;;;;3.00;1.90;;;;;;;;;;5074796;28;20550;-42
2021/08/24 03:18:19;;;;;;;3.25;1.80;;;;;;;;;;5074087;28;20181;-42
2021/08/24 03:20:47;;;;;;;3.55;2.00;;;;;;;;;;5074368;28;20356;-42
2021/08/24 03:23:15;;;;;;;3.10;2.00;;;;;;;;;;5100814;28;20529;-42
2021/08/24 03:25:42;;;;;;;2.55;1.77;;;;;;;;;;5110233;28;20188;-42
2021/08/24 03:28:12;;;;;;;3.10;2.13;;;;;;;;;;5114456;28;20552;-42
2021/08/24 03:30:38;;;;;;;2.95;2.05;;;;;;;;;;5115069;28;20571;-42
2021/08/24 03:33:04;;;;;;;3.20;1.92;;;;;;;;;;5097642;28;20201;-42
2021/08/24 03:35:30;;;;;;;3.00;2.10;;;;;;;;;;5095929;28;20226;-42
2021/08/24 03:37:56;;;;;;;2.58;1.90;;;;;;;;;;5083762;28;20464;-42
2021/08/24 03:40:22;;;;;;;2.13;1.92;;;;;;;;;;5084093;28;20179;-42
2021/08/24 03:42:48;;;;;;;3.33;1.90;;;;;;;;;;5092897;28;20181;-42
2021/08/24 03:45:14;;;;;;;2.13;1.77;;;;;;;;;;5097725;28;20221;-42
2021/08/24 03:47:40;;;;;;;3.45;2.20;;;;;;;;;;5077808;28;20184;-43
2021/08/24 03:50:07;;;;;;;3.50;2.00;;;;;;;;;;5077749;28;20175;-42
2021/08/24 03:52:33;;;;;;;3.05;2.17;;;;;;;;;;5089367;28;20204;-42
2021/08/24 03:54:59;;;;;;;2.75;1.98;;;;;;;;;;5094901;28;20178;-42
2021/08/24 03:57:26;;;;;;;2.60;2.22;;;;;;;;;;5097595;28;20622;-42
2021/08/24 03:59:55;;;;;;;2.97;1.92;;;;;;;;;;5098134;28;20173;-43
2021/08/24 04:02:28;;;;;;;4.15;2.00;;;;;;;;;;5097330;28;20209;-43
2021/08/24 04:04:54;;;;;;;5.43;2.33;;;;;;;;;;5071825;28;20189;-43
2021/08/24 04:07:20;;;;;;;3.00;2.00;;;;;;;;;;5081824;28;20198;-42
2021/08/24 04:09:46;;;;;;;1.98;1.60;;;;;;;;;;5083346;28;20584;-42
2021/08/24 04:12:14;;;;;;;2.88;2.00;;;;;;;;;;5080825;28;20174;-43
2021/08/24 04:14:40;;;;;;;7.15;2.58;;;;;;;;;;5091940;28;20292;-43
2021/08/24 04:17:06;;;;;;;17.00;3.40;;;;;;;;;;5094586;28;20670;-43
2021/08/24 04:19:32;;;;;;;18.13;3.35;;;;;;;;;;5077072;28;20167;-43
2021/08/24 04:21:58;;;;;;;15.75;2.90;;;;;;;;;;5080040;28;20193;-43
2021/08/24 04:24:24;;;;;;;12.10;2.53;;;;;;;;;;5106357;28;20204;-43
2021/08/24 04:26:50;;;;;;;7.35;2.50;;;;;;;;;;5118029;28;20169;-43
2021/08/24 04:29:16;;;;;;;7.82;2.70;;;;;;;;;;5103827;28;20197;-43
2021/08/24 04:31:42;;;;;;;6.82;2.75;;;;;;;;;;5095612;28;20174;-43
2021/08/24 04:34:09;;;;;;;7.22;2.50;;;;;;;;;;5083173;28;20276;-43
2021/08/24 04:36:34;;;;;;;6.80;2.40;;;;;;;;;;5097226;28;20177;-43
2021/08/24 04:39:00;;;;;;;8.43;2.45;;;;;;;;;;5083760;28;20216;-43
2021/08/24 04:41:27;;;;;;;4.40;2.15;;;;;;;;;;5093690;28;20174;-43
2021/08/24 04:43:53;;;;;;;5.32;2.28;;;;;;;;;;5080058;28;20190;-43
2021/08/24 04:46:19;;;;;;;4.72;2.17;;;;;;;;;;5089086;28;20214;-42
2021/08/24 04:48:45;;;;;;;6.32;2.55;;;;;;;;;;5076379;28;20202;-43
2021/08/24 04:51:11;;;;;;;5.35;2.25;;;;;;;;;;5076929;28;20184;-43
2021/08/24 04:53:37;;;;;;;3.63;1.95;;;;;;;;;;5080322;28;20627;-43
2021/08/24 04:56:03;;;;;;;9.90;2.40;;;;;;;;;;5076806;28;20258;-43
2021/08/24 04:58:29;;;;;;;5.65;2.13;;;;;;;;;;5076313;28;20174;-43
2021/08/24 05:00:55;;;;;;;7.43;2.30;;;;;;;;;;5076443;28;20167;-43
2021/08/24 05:03:21;;;;;;;8.32;2.13;;;;;;;;;;5087723;28;20238;-43
2021/08/24 05:05:47;;;;;;;3.80;1.92;;;;;;;;;;5096858;28;20165;-43
2021/08/24 05:08:13;;;;;;;5.57;2.10;;;;;;;;;;5087083;28;20580;-43
2021/08/24 05:10:39;;;;;;;6.05;2.30;;;;;;;;;;5092663;28;20466;-43
2021/08/24 05:13:05;;;;;;;7.45;2.10;;;;;;;;;;5095693;28;20208;-43
2021/08/24 05:15:32;;;;;;;4.75;2.10;;;;;;;;;;5096521;28;20172;-43
2021/08/24 05:17:58;;;;;;;3.35;1.85;;;;;;;;;;5096028;28;20439;-43
2021/08/24 05:20:25;;;;;;;3.35;1.83;;;;;;;;;;5095480;28;20174;-43
2021/08/24 05:22:51;;;;;;;7.55;2.25;;;;;;;;;;5087900;28;20223;-43
2021/08/24 05:25:18;;;;;;;3.13;1.73;;;;;;;;;;5101117;28;20206;-43
2021/08/24 05:27:44;;;;;;;4.22;1.90;;;;;;;;;;5075705;28;20175;-43
2021/08/24 05:30:13;;;;;;;4.32;2.00;;;;;;;;;;5075829;28;20167;-43
2021/08/24 05:32:39;;;;;;;5.00;2.00;;;;;;;;;;5087436;28;20171;-43
2021/08/24 05:35:05;;;;;;;7.82;2.42;;;;;;;;;;5093255;28;20189;-43
2021/08/24 05:37:32;;;;;;;3.67;1.58;;;;;;;;;;5092515;28;20170;-43
2021/08/24 05:39:58;;;;;;;4.68;2.35;;;;;;;;;;5086433;28;20170;-43
2021/08/24 05:42:24;;;;;;;4.28;1.70;;;;;;;;;;5090620;28;20318;-43
2021/08/24 05:44:50;;;;;;;5.78;1.63;;;;;;;;;;5095767;28;20596;-44
2021/08/24 05:47:16;;;;;;;6.18;2.00;;;;;;;;;;5095799;28;20331;-43
2021/08/24 05:49:42;;;;;;;5.30;2.10;;;;;;;;;;5094899;28;20564;-43
2021/08/24 05:52:09;;;;;;;2.90;2.10;;;;;;;;;;5093631;28;20166;-42
2021/08/24 05:54:36;;;;;;;2.83;2.00;;;;;;;;;;5092315;28;20193;-42
2021/08/24 05:57:04;;;;;;;3.78;1.77;;;;;;;;;;5077105;28;20186;-43
2021/08/24 05:59:30;;;;;;;4.57;2.22;;;;;;;;;;5080076;28;20181;-43
2021/08/24 06:01:56;;;;;;;3.63;1.90;;;;;;;;;;5095505;28;20178;-42
2021/08/24 06:04:23;;;;;;;3.00;1.60;;;;;;;;;;5076403;28;20240;-43
2021/08/24 06:06:49;;;;;;;2.55;1.70;;;;;;;;;;5083945;28;20261;-43
2021/08/24 06:09:15;;;;;;;2.78;1.80;;;;;;;;;;5079874;28;20257;-43
2021/08/24 06:11:44;;;;;;;4.30;1.60;;;;;;;;;;5075339;28;20170;-43
2021/08/24 06:14:10;;;;;;;2.20;1.52;;;;;;;;;;5086083;28;20212;-43
2021/08/24 06:16:37;;;;;;;2.28;1.70;;;;;;;;;;5095628;28;20180;-43
2021/08/24 06:19:03;;;;;;;2.58;1.75;;;;;;;;;;5081492;28;20184;-43
2021/08/24 06:21:29;;;;;;;2.40;1.75;;;;;;;;;;5090312;28;20269;-43
2021/08/24 06:23:56;;;;;;;2.00;1.58;;;;;;;;;;5082284;28;20217;-42
2021/08/24 06:26:22;;;;;;;2.75;1.80;;;;;;;;;;5104684;28;20182;-43
2021/08/24 06:28:48;;;;;;;3.58;1.92;;;;;;;;;;5074572;28;20277;-43
2021/08/24 06:31:16;;;;;;;5.03;1.80;;;;;;;;;;5092983;28;20557;-43
2021/08/24 06:33:42;;;;;;;4.70;1.85;;;;;;;;;;5081441;28;20224;-43
2021/08/24 06:36:09;;;;;;;2.97;1.60;;;;;;;;;;5075080;28;20170;-43
2021/08/24 06:38:35;;;;;;;2.45;1.55;;;;;;;;;;5086059;28;20188;-44
2021/08/24 06:41:02;;;;;;;2.90;2.00;;;;;;;;;;5075617;28;20175;-43
2021/08/24 06:43:28;;;;;;;2.05;1.48;;;;;;;;;;5094897;28;20194;-43
2021/08/24 06:45:54;;;;;;;2.45;1.60;;;;;;;;;;5095094;28;20181;-43
2021/08/24 06:48:20;;;;;;;2.85;1.75;;;;;;;;;;5093364;28;20205;-43
2021/08/24 06:50:46;;;;;;;3.22;1.65;;;;;;;;;;5094254;28;20185;-43
2021/08/24 06:53:13;;;;;;;1.92;1.65;;;;;;;;;;5086307;28;20204;-43
2021/08/24 06:55:39;;;;;;;2.20;1.75;;;;;;;;;;5094771;28;20170;-43
2021/08/24 06:58:06;;;;;;;3.13;1.70;;;;;;;;;;5093777;28;20407;-43
2021/08/24 07:00:33;;;;;;;1.63;1.52;;;;;;;;;;5089614;28;20424;-43
2021/08/24 07:02:59;;;;;;;2.45;1.40;;;;;;;;;;5082015;28;20225;-43
2021/08/24 07:05:26;;;;;;;2.40;1.70;;;;;;;;;;5084034;28;20605;-43
2021/08/24 07:07:52;;;;;;;4.13;1.67;;;;;;;;;;5096020;28;20176;-43
2021/08/24 07:10:18;;;;;;;1.98;1.67;;;;;;;;;;5085738;28;20259;-43
2021/08/24 07:12:44;;;;;;;1.75;1.60;;;;;;;;;;5089759;28;20174;-43
2021/08/24 07:15:12;;;;;;;2.72;1.85;;;;;;;;;;5078871;28;20166;-43
2021/08/24 07:17:38;;;;;;;1.98;1.40;;;;;;;;;;5082105;28;20205;-43
2021/08/24 07:20:05;;;;;;;2.20;1.88;;;;;;;;;;5098600;28;20259;-43
2021/08/24 07:22:31;;;;;;;1.52;1.40;;;;;;;;;;5087546;28;20186;-43
2021/08/24 07:24:57;;;;;;;2.15;1.48;;;;;;;;;;5104471;28;20239;-43
2021/08/24 07:27:23;;;;;;;2.05;1.40;;;;;;;;;;5098559;28;20165;-43
2021/08/24 07:29:49;;;;;;;3.20;1.83;;;;;;;;;;5097585;28;20198;-43
2021/08/24 07:32:15;;;;;;;2.28;1.70;;;;;;;;;;5097536;28;20176;-43
2021/08/24 07:34:41;;;;;;;1.83;1.63;;;;;;;;;;5078495;28;20244;-43
2021/08/24 07:37:07;;;;;;;1.70;1.13;;;;;;;;;;5079050;28;20219;-43
2021/08/24 07:39:33;;;;;;;2.00;1.23;;;;;;;;;;5088495;28;20210;-43
2021/08/24 07:41:59;;;;;;;2.25;1.58;;;;;;;;;;5086389;28;20552;-43
2021/08/24 07:44:30;;;;;;;4.68;2.05;;;;;;;;;;5086764;28;20245;-43
2021/08/24 07:46:56;;;;;;;1.60;1.33;;;;;;;;;;5077828;28;20170;-43
2021/08/24 07:49:22;;;;;;;2.13;1.48;;;;;;;;;;5093176;28;20182;-43
2021/08/24 07:51:48;;;;;;;2.20;1.60;;;;;;;;;;5097773;28;20200;-43
2021/08/24 07:54:14;;;;;;;1.63;1.50;;;;;;;;;;5085617;28;20206;-43
2021/08/24 07:56:40;;;;;;;1.67;1.48;;;;;;;;;;5077929;28;20181;-43
2021/08/24 07:59:06;;;;;;;3.13;1.60;;;;;;;;;;5089765;28;20220;-43
2021/08/24 08:01:32;;;;;;;1.60;1.40;;;;;;;;;;5097809;28;20189;-43
2021/08/24 08:03:58;;;;;;;1.55;1.45;;;;;;;;;;5082701;28;20198;-43
2021/08/24 08:06:24;;;;;;;1.55;1.40;;;;;;;;;;5083906;28;20258;-43
2021/08/24 08:08:50;;;;;;;1.60;1.50;;;;;;;;;;5085523;28;20183;-43
2021/08/24 08:11:16;;;;;;;2.03;1.40;;;;;;;;;;5097867;28;20170;-43
2021/08/24 08:13:42;;;;;;;3.13;1.55;;;;;;;;;;5083644;28;20230;-43
2021/08/24 08:16:08;;;;;;;1.30;1.20;;;;;;;;;;5078200;28;20174;-43
2021/08/24 08:18:34;;;;;;;1.77;1.55;;;;;;;;;;5085698;28;20171;-43
2021/08/24 08:21:00;;;;;;;2.35;1.60;;;;;;;;;;5077816;28;20177;-43
2021/08/24 08:23:26;;;;;;;1.55;1.45;;;;;;;;;;5097941;28;20178;-43
2021/08/24 08:25:52;;;;;;;1.75;1.58;;;;;;;;;;5116896;28;20256;-43
2021/08/24 08:28:18;;;;;;;2.95;1.52;;;;;;;;;;5090911;28;20194;-43
2021/08/24 08:30:45;;;;;;;1.80;1.45;;;;;;;;;;5077463;28;20439;-43
2021/08/24 08:33:11;;;;;;;1.38;1.27;;;;;;;;;;5085443;28;20201;-43
2021/08/24 08:35:38;;;;;;;1.73;1.48;;;;;;;;;;5081253;28;20420;-43
2021/08/24 08:38:04;;;;;;;3.53;1.70;;;;;;;;;;5082644;28;20206;-43
2021/08/24 08:40:49;;;;;;;1.30;1.20;;;;;;;;;;5077144;28;20486;-43
2021/08/24 08:43:25;;;;;;;1.70;1.60;;;;;;;;;;5094727;28;20453;-43
2021/08/24 08:45:52;;;;;;;1.52;1.42;;;;;;;;;;5095551;28;20205;-43
2021/08/24 08:48:18;;;;;;;2.75;1.58;;;;;;;;;;5096141;28;20904;-43
2021/08/24 08:50:49;;;;;;;1.60;1.50;;;;;;;;;;5096796;28;20190;-43
2021/08/24 08:53:27;;;;;;;2.00;1.73;;;;;;;;;;5088232;28;20208;-43
2021/08/24 08:56:06;;;;;;;1.55;1.45;;;;;;;;;;5096361;28;20181;-43
2021/08/24 08:58:50;;;;;;;2.55;1.45;;;;;;;;;;5096174;28;20544;-44
2021/08/24 09:01:24;;;;;;;1.45;1.35;;;;;;;;;;5096914;28;20201;-43
2021/08/24 09:03:55;;;;;;;1.65;1.40;;;;;;;;;;5088212;28;20209;-43
2021/08/24 09:06:23;;;;;;;1.48;1.35;;;;;;;;;;5091661;28;20264;-43
2021/08/24 09:08:50;;;;;;;1.75;1.60;;;;;;;;;;5091279;28;20495;-43
2021/08/24 09:11:16;;;;;;;1.70;1.60;;;;;;;;;;5096591;28;20200;-43
2021/08/24 09:13:49;;;;;;;1.75;1.40;;;;;;;;;;5088995;28;20205;-43
2021/08/24 09:16:18;;;;;;;1.70;1.60;;;;;;;;;;5090126;28;20182;-43
2021/08/24 09:18:48;;;;;;;1.90;1.67;;;;;;;;;;5096219;28;20170;-43
2021/08/24 09:21:22;;;;;;;1.70;1.55;;;;;;;;;;5096392;28;20182;-43
2021/08/24 09:23:48;;;;;;;1.60;1.50;;;;;;;;;;5099787;28;20588;-43
2021/08/24 09:26:33;;;;;;;2.25;1.73;;;;;;;;;;5101610;28;20256;-43
2021/08/24 09:28:59;;;;;;;2.08;1.90;;;;;;;;;;5094481;28;20281;-43
2021/08/24 09:31:25;;;;;;;2.50;2.03;;;;;;;;;;5096375;28;20257;-43
2021/08/24 09:33:52;;;;;;;1.60;1.45;;;;;;;;;;5093965;28;20206;-43
2021/08/24 09:36:18;;;;;;;1.67;1.58;;;;;;;;;;5095348;28;20173;-43
2021/08/24 09:38:46;;;;;;;1.58;1.48;;;;;;;;;;5091111;28;20181;-43
2021/08/24 09:41:38;;;;;;;2.00;1.73;;;;;;;;;;5077384;28;20166;-43
2021/08/24 09:44:23;;;;;;;1.73;1.63;;;;;;;;;;5072258;28;20213;-43
2021/08/24 09:46:50;;;;;;;1.77;1.58;;;;;;;;;;5075833;28;20186;-43
2021/08/24 09:49:22;;;;;;;1.77;1.67;;;;;;;;;;5075238;28;20236;-43
2021/08/24 09:51:56;;;;;;;1.90;1.70;;;;;;;;;;5083465;28;20489;-44
2021/08/24 09:54:38;;;;;;;2.13;1.70;;;;;;;;;;5085778;28;20229;-43
2021/08/24 09:57:06;;;;;;;2.00;1.80;;;;;;;;;;5074934;28;20177;-43
2021/08/24 09:59:43;;;;;;;2.10;1.63;;;;;;;;;;5089949;28;20253;-43
2021/08/24 10:02:29;;;;;;;1.95;1.70;;;;;;;;;;5094151;28;20224;-43
2021/08/24 10:04:55;;;;;;;1.80;1.70;;;;;;;;;;5094934;28;20228;-43
2021/08/24 10:07:32;;;;;;;2.35;1.75;;;;;;;;;;5093261;28;20201;-43
2021/08/24 10:09:59;;;;;;;2.80;1.80;;;;;;;;;;5085820;28;20549;-43
2021/08/24 10:12:29;;;;;;;2.05;1.88;;;;;;;;;;5089723;28;20178;-43
2021/08/24 10:14:56;;;;;;;1.73;1.58;;;;;;;;;;5089625;28;20205;-43
2021/08/24 10:17:25;;;;;;;2.63;1.90;;;;;;;;;;5078879;28;20198;-43
2021/08/24 10:19:52;;;;;;;2.95;1.90;;;;;;;;;;5095167;28;20174;-43
2021/08/24 10:22:27;;;;;;;1.63;1.52;;;;;;;;;;5095041;28;20231;-43
2021/08/24 10:25:16;;;;;;;2.30;2.10;;;;;;;;;;5108212;28;20176;-43
2021/08/24 10:27:56;;;;;;;1.60;1.50;;;;;;;;;;5105072;28;20177;-43
2021/08/24 10:30:43;;;;;;;2.00;1.80;;;;;;;;;;5094968;28;20184;-43
2021/08/24 10:33:24;;;;;;;2.10;1.90;;;;;;;;;;5088918;28;20206;-43
2021/08/24 10:35:52;;;;;;;1.80;1.70;;;;;;;;;;5074927;28;20167;-43
2021/08/24 10:38:18;;;;;;;2.15;1.95;;;;;;;;;;5083346;28;20170;-43
2021/08/24 10:40:46;;;;;;;1.80;1.70;;;;;;;;;;5081131;28;20571;-43
2021/08/24 10:43:14;;;;;;;2.10;1.90;;;;;;;;;;5077040;28;20454;-43
2021/08/24 10:45:46;;;;;;;1.88;1.77;;;;;;;;;;5075955;28;20247;-43
2021/08/24 10:48:12;;;;;;;2.00;1.80;;;;;;;;;;5094579;28;20158;-43
2021/08/24 10:50:48;;;;;;;2.10;1.90;;;;;;;;;;5093729;28;20445;-43
2021/08/24 10:53:22;;;;;;;2.40;2.17;;;;;;;;;;5082735;28;20288;-43
2021/08/24 10:55:50;;;;;;;1.77;1.67;;;;;;;;;;5077610;28;20565;-43
2021/08/24 10:58:23;;;;;;;2.30;2.10;;;;;;;;;;5074013;28;20175;-43
2021/08/24 11:00:55;;;;;;;2.00;1.80;;;;;;;;;;5079298;28;20195;-43
2021/08/24 11:03:48;;;;;;;1.80;1.70;;;;;;;;;;5092841;28;20193;-43
2021/08/24 11:06:27;;;;;;;1.60;1.50;;;;;;;;;;5074738;28;20174;-43
2021/08/24 11:09:05;;;;;;;1.92;1.75;;;;;;;;;;5086225;28;20233;-43
2021/08/24 11:11:44;;;;;;;1.80;1.70;;;;;;;;;;5074721;28;20186;-43
2021/08/24 11:14:22;;;;;;;1.90;1.70;;;;;;;;;;5090924;28;20205;-44
2021/08/24 11:16:54;;;;;;;2.65;1.83;;;;;;;;;;5074821;28;20193;-44
2021/08/24 11:19:39;;;;;;;1.80;1.70;;;;;;;;;;5091715;28;20182;-43
2021/08/24 11:22:05;;;;;;;1.90;1.70;;;;;;;;;;5090877;28;20269;-43
2021/08/24 11:24:31;;;;;;;2.03;1.80;;;;;;;;;;5098575;28;20261;-43
2021/08/24 11:27:12;;;;;;;2.30;2.10;;;;;;;;;;5093291;28;20523;-43
2021/08/24 11:29:54;;;;;;;2.00;1.90;;;;;;;;;;5093667;28;20206;-43
2021/08/24 11:32:29;;;;;;;2.22;2.03;;;;;;;;;;5092861;28;20193;-43
2021/08/24 11:35:08;;;;;;;2.30;2.10;;;;;;;;;;5093963;28;20201;-43
2021/08/24 11:37:38;;;;;;;2.30;2.03;;;;;;;;;;5089791;28;20178;-43
2021/08/24 11:40:06;;;;;;;1.60;1.50;;;;;;;;;;5093549;28;20178;-43
2021/08/24 11:42:38;;;;;;;1.70;1.60;;;;;;;;;;5081710;28;20258;-43
2021/08/24 11:45:06;;;;;;;2.15;1.95;;;;;;;;;;5074287;28;20179;-43
2021/08/24 11:47:53;;;;;;;1.73;1.63;;;;;;;;;;5074462;28;20206;-43
2021/08/24 11:50:28;;;;;;;2.45;2.13;;;;;;;;;;5078809;28;20266;-43
2021/08/24 11:52:58;;;;;;;1.98;1.85;;;;;;;;;;5080108;28;20223;-43
2021/08/24 11:55:31;;;;;;;1.80;1.70;;;;;;;;;;5093939;28;20177;-44
2021/08/24 11:58:25;;;;;;;2.00;1.80;;;;;;;;;;5093076;28;20279;-43
2021/08/24 12:00:55;;;;;;;2.55;2.10;;;;;;;;;;5060269;28;20678;-43
2021/08/24 12:03:22;;;;;;;2.22;1.90;;;;;;;;;;5088749;28;20221;-43
2021/08/24 12:06:01;;;;;;;2.13;1.92;;;;;;;;;;5097124;28;20606;-43
2021/08/24 12:08:27;;;;;;;1.60;1.50;;;;;;;;;;5085475;28;20186;-43
2021/08/24 12:11:01;;;;;;;2.05;1.85;;;;;;;;;;5095691;28;20166;-43
2021/08/24 12:13:29;;;;;;;1.60;1.50;;;;;;;;;;5085927;28;20210;-43
2021/08/24 12:16:14;;;;;;;1.80;1.70;;;;;;;;;;5087953;28;20170;-43
2021/08/24 12:18:39;;;;;;;1.90;1.80;;;;;;;;;;5096722;28;20174;-43
2021/08/24 12:21:26;;;;;;;1.70;1.60;;;;;;;;;;5097550;28;20231;-43
2021/08/24 12:23:52;;;;;;;1.92;1.70;;;;;;;;;;5096895;28;20185;-43
2021/08/24 12:26:32;;;;;;;2.13;1.92;;;;;;;;;;5108577;28;20549;-43
2021/08/24 12:29:07;;;;;;;2.13;1.90;;;;;;;;;;5076433;28;20281;-43
2021/08/24 12:31:39;;;;;;;2.72;2.33;;;;;;;;;;5079570;28;20181;-43
2021/08/24 12:34:23;;;;;;;1.73;1.63;;;;;;;;;;5079727;28;20262;-43
2021/08/24 12:36:49;;;;;;;2.05;1.95;;;;;;;;;;5089009;28;20169;-43
2021/08/24 12:39:34;;;;;;;2.00;1.80;;;;;;;;;;5082898;28;20178;-44
2021/08/24 12:42:20;;;;;;;2.05;1.92;;;;;;;;;;5085342;28;20257;-43
2021/08/24 12:44:48;;;;;;;2.28;1.92;;;;;;;;;;5080206;28;20741;-43
2021/08/24 12:47:35;;;;;;;1.90;1.80;;;;;;;;;;5095970;28;20265;-43
2021/08/24 12:50:06;;;;;;;2.10;1.90;;;;;;;;;;5096809;28;20453;-43
2021/08/24 12:52:40;;;;;;;1.65;1.55;;;;;;;;;;5081898;28;20227;-43
2021/08/24 12:55:09;;;;;;;1.73;1.63;;;;;;;;;;5083454;28;20198;-43
2021/08/24 12:57:37;;;;;;;1.83;1.73;;;;;;;;;;5077073;28;20236;-43
2021/08/24 13:00:23;;;;;;;1.83;1.73;;;;;;;;;;5096957;28;20174;-43
2021/08/24 13:02:59;;;;;;;2.08;1.98;;;;;;;;;;5093668;28;20418;-43
2021/08/24 13:05:27;;;;;;;1.92;1.80;;;;;;;;;;5086533;28;20174;-43
2021/08/24 13:08:04;;;;;;;1.70;1.60;;;;;;;;;;5092106;28;20227;-43
2021/08/24 13:10:32;;;;;;;1.80;1.70;;;;;;;;;;5081940;28;20175;-43
2021/08/24 13:12:59;;;;;;;1.63;1.52;;;;;;;;;;5059144;28;20185;-43
2021/08/24 13:15:28;;;;;;;2.20;1.80;;;;;;;;;;5086641;28;20216;-43
2021/08/24 13:17:56;;;;;;;2.15;1.95;;;;;;;;;;5076477;28;20203;-43
2021/08/24 13:20:27;;;;;;;1.88;1.77;;;;;;;;;;5076205;28;20172;-43
2021/08/24 13:23:01;;;;;;;1.77;1.67;;;;;;;;;;5089073;28;20175;-43
2021/08/24 13:25:29;;;;;;;1.63;1.52;;;;;;;;;;5102205;28;20195;-43
2021/08/24 13:27:59;;;;;;;1.83;1.73;;;;;;;;;;5078958;28;20575;-43
2021/08/24 13:30:30;;;;;;;1.75;1.65;;;;;;;;;;5080219;28;20253;-43
2021/08/24 13:33:01;;;;;;;1.80;1.70;;;;;;;;;;5076142;28;20175;-43
2021/08/24 13:35:30;;;;;;;2.08;1.88;;;;;;;;;;5087426;28;20492;-43
2021/08/24 13:38:18;;;;;;;1.67;1.58;;;;;;;;;;5091396;28;20189;-43
2021/08/24 13:42:29;;;;;;;4.90;2.28;;;;;;;;;;5135819;27;20682;-45
2021/08/24 13:44:55;;;;;;;7.05;2.10;;;;;;;;;;5116744;28;20272;-44
2021/08/24 13:47:22;;;;;;;4.40;2.17;;;;;;;;;;5132521;28;20168;-44
2021/08/24 13:49:53;;;;;;;11.20;2.17;;;;;;;;;;5121751;28;20177;-44
2021/08/24 13:52:36;;;;;;;8.00;2.22;;;;;;;;;;5111235;28;20185;-48
2021/08/24 13:55:04;;;;;;;4.70;2.15;;;;;;;;;;5108875;28;20173;-45
2021/08/24 13:57:31;;;;;;;12.32;2.70;;;;;;;;;;5111668;28;20177;-46
2021/08/24 14:00:02;;;;;;;13.25;3.33;;;;;;;;;;5112118;28;20173;-46
2021/08/24 14:02:30;;;;;;;12.52;3.10;;;;;;;;;;5111183;28;20181;-47
2021/08/24 14:04:56;;;;;;;11.90;2.85;;;;;;;;;;5111367;28;20201;-47
2021/08/24 14:07:35;;;;;;;8.25;2.67;;;;;;;;;;5111075;28;20494;-47
2021/08/24 14:10:04;;;;;;;13.70;2.85;;;;;;;;;;5102030;28;20177;-46
2021/08/24 14:12:32;;;;;;;7.07;2.55;;;;;;;;;;5111547;28;20181;-47
2021/08/24 14:15:05;;;;;;;6.70;2.40;;;;;;;;;;5096341;28;20169;-47
2021/08/24 14:17:40;;;;;;;10.85;2.55;;;;;;;;;;5110928;28;20268;-47
2021/08/24 14:20:09;;;;;;;7.43;2.40;;;;;;;;;;5091750;28;20652;-46
2021/08/24 14:22:35;;;;;;;5.68;2.55;;;;;;;;;;5090468;28;20438;-47
2021/08/24 14:25:02;;;;;;;4.07;2.45;;;;;;;;;;5080588;28;20613;-47
2021/08/24 14:27:28;;;;;;;8.65;2.67;;;;;;;;;;5079433;28;20178;-47
2021/08/24 14:29:55;;;;;;;4.22;2.42;;;;;;;;;;5090923;28;20181;-47
2021/08/24 14:32:30;;;;;;;4.25;2.35;;;;;;;;;;5090886;28;20771;-47
2021/08/24 14:34:56;;;;;;;5.68;2.78;;;;;;;;;;5071072;28;20196;-47
2021/08/24 14:37:23;;;;;;;3.25;2.30;;;;;;;;;;5083201;28;20209;-47
2021/08/24 14:40:00;;;;;;;6.60;2.30;;;;;;;;;;5097882;28;20209;-47
2021/08/24 14:42:29;;;;;;;4.60;2.42;;;;;;;;;;5062108;28;20530;-47
2021/08/24 14:44:55;;;;;;;4.20;2.13;;;;;;;;;;5070268;28;20210;-47
2021/08/24 14:47:30;;;;;;;3.58;2.20;;;;;;;;;;5069992;28;20460;-47
2021/08/24 14:49:57;;;;;;;4.10;2.38;;;;;;;;;;5070260;28;20174;-47
2021/08/24 14:52:49;;;;;;;4.70;2.60;;;;;;;;;;5058040;28;20190;-47
2021/08/24 14:55:24;;;;;;;3.90;2.60;;;;;;;;;;5049570;28;20171;-46
2021/08/24 14:57:56;;;;;;;3.85;2.40;;;;;;;;;;5056625;28;20410;-45
2021/08/24 15:00:25;;;;;;;3.65;2.50;;;;;;;;;;5056947;28;20206;-45
2021/08/24 15:02:52;;;;;;;3.50;2.20;;;;;;;;;;5054444;28;20350;-45